createdAt,value
2018-06-01T00:00:57.422Z,50.50
2018-06-01T00:03:25.679Z,51.00
2018-06-01T00:05:53.913Z,51.20
2018-06-01T00:08:22.144Z,51.90
2018-06-01T00:10:50.418Z,52.50
2018-06-01T00:13:18.694Z,52.70
2018-06-01T00:15:46.915Z,52.80
2018-06-01T00:18:15.168Z,52.80
2018-06-01T00:20:44.169Z,53.00
2018-06-01T00:23:12.420Z,53.00
2018-06-01T00:25:40.667Z,53.20
2018-06-01T00:28:08.897Z,53.40
2018-06-01T00:30:37.144Z,53.60
2018-06-01T00:33:05.397Z,53.90
2018-06-01T00:35:33.620Z,54.10
2018-06-01T00:38:01.876Z,54.30
2018-06-01T00:40:30.104Z,54.90
2018-06-01T00:42:58.352Z,55.40
2018-06-01T00:45:26.582Z,55.70
2018-06-01T00:47:54.848Z,56.40
2018-06-01T00:50:23.077Z,55.80
2018-06-01T00:52:52.083Z,55.80
2018-06-01T00:55:25.237Z,55.70
2018-06-01T00:57:53.466Z,55.80
2018-06-01T01:00:21.723Z,55.80
2018-06-01T01:02:49.943Z,55.90
2018-06-01T01:05:18.164Z,56.30
2018-06-01T01:07:47.178Z,56.70
2018-06-01T01:10:15.423Z,56.60
2018-06-01T01:12:44.466Z,56.80
2018-06-01T01:15:12.699Z,56.70
2018-06-01T01:17:41.689Z,56.90
2018-06-01T01:20:10.704Z,57.00
2018-06-01T01:22:38.933Z,57.00
2018-06-01T01:25:07.182Z,56.90
2018-06-01T01:27:35.405Z,57.30
2018-06-01T01:30:03.647Z,57.50
2018-06-01T01:32:31.897Z,56.80
2018-06-01T01:35:00.139Z,57.40
2018-06-01T01:37:33.019Z,57.30
2018-06-01T01:40:01.241Z,57.20
2018-06-01T01:42:29.500Z,57.20
2018-06-01T01:44:57.727Z,57.20
2018-06-01T01:47:25.960Z,57.30
2018-06-01T01:49:54.181Z,57.70
2018-06-01T01:52:22.433Z,57.60
2018-06-01T01:54:50.677Z,57.60
2018-06-01T01:57:18.910Z,57.50
2018-06-01T01:59:47.140Z,57.50
2018-06-01T02:02:15.372Z,57.40
2018-06-01T02:04:43.617Z,57.30
2018-06-01T02:07:11.846Z,58.00
2018-06-01T02:09:40.871Z,57.00
2018-06-01T02:12:09.092Z,57.00
2018-06-01T02:14:37.340Z,56.80
2018-06-01T02:17:05.579Z,56.90
2018-06-01T02:19:33.852Z,56.90
2018-06-01T02:22:02.071Z,56.90
2018-06-01T02:24:30.298Z,56.90
2018-06-01T02:26:58.554Z,56.80
2018-06-01T02:29:26.770Z,56.90
2018-06-01T02:31:55.016Z,56.90
2018-06-01T02:34:24.028Z,56.70
2018-06-01T02:36:52.263Z,56.70
2018-06-01T02:39:20.510Z,56.60
2018-06-01T02:41:48.752Z,56.60
2018-06-01T02:44:16.967Z,56.60
2018-06-01T02:46:45.213Z,56.50
2018-06-01T02:49:13.463Z,56.50
2018-06-01T02:51:42.466Z,56.50
2018-06-01T02:54:11.447Z,56.50
2018-06-01T02:56:40.464Z,56.50
2018-06-01T02:59:08.695Z,56.50
2018-06-01T03:01:36.930Z,56.60
2018-06-01T03:04:05.197Z,56.60
2018-06-01T03:06:48.220Z,56.60
2018-06-01T03:09:16.444Z,56.50
2018-06-01T03:11:44.687Z,56.50
2018-06-01T03:14:12.940Z,56.60
2018-06-01T03:16:41.186Z,56.80
2018-06-01T03:19:09.436Z,56.70
2018-06-01T03:21:37.663Z,56.70
2018-06-01T03:24:05.913Z,56.60
2018-06-01T03:26:34.149Z,56.50
2018-06-01T03:29:02.408Z,56.50
2018-06-01T03:31:30.631Z,56.60
2018-06-01T03:33:58.882Z,56.50
2018-06-01T03:36:27.142Z,56.50
2018-06-01T03:38:55.367Z,56.40
2018-06-01T03:41:23.608Z,56.50
2018-06-01T03:43:51.853Z,56.30
2018-06-01T06:02:39.759Z,57.80
2018-06-01T06:05:07.969Z,57.50
2018-06-01T06:07:37.007Z,57.60
2018-06-01T06:10:05.242Z,57.60
2018-06-01T06:12:34.295Z,57.80
2018-06-01T06:15:02.558Z,57.80
2018-06-01T06:17:30.806Z,57.70
2018-06-01T06:19:59.061Z,57.80
2018-06-01T06:22:28.080Z,57.60
2018-06-01T06:24:56.340Z,57.50
2018-06-01T06:27:25.330Z,57.40
2018-06-01T06:29:54.379Z,57.40
2018-06-01T06:32:22.593Z,57.30
2018-06-01T06:34:50.821Z,57.50
2018-06-01T06:37:19.089Z,57.50
2018-06-01T06:39:47.394Z,57.30
2018-06-01T06:42:15.969Z,57.50
2018-06-01T06:44:44.288Z,57.50
2018-06-01T06:47:12.539Z,57.40
2018-06-01T06:49:40.829Z,57.60
2018-06-01T06:52:09.072Z,57.90
2018-06-01T06:54:38.109Z,57.20
2018-06-01T06:57:07.111Z,57.10
2018-06-01T06:59:36.116Z,57.20
2018-06-01T07:02:04.367Z,57.10
2018-06-01T07:04:32.606Z,57.40
2018-06-01T07:07:00.885Z,57.20
2018-06-01T07:09:29.115Z,56.30
2018-06-01T07:11:57.355Z,56.30
2018-06-01T07:14:25.646Z,56.20
2018-06-01T07:16:53.837Z,56.50
2018-06-01T07:19:22.883Z,56.20
2018-06-01T07:21:51.153Z,56.10
2018-06-01T07:24:19.407Z,56.10
2018-06-01T07:26:47.631Z,56.10
2018-06-01T07:29:15.902Z,56.10
2018-06-01T07:31:44.142Z,55.90
2018-06-01T07:34:12.409Z,55.60
2018-06-01T07:36:40.639Z,55.40
2018-06-01T07:39:08.870Z,55.20
2018-06-01T07:41:37.142Z,55.20
2018-06-01T07:44:05.403Z,54.90
2018-06-01T07:46:33.644Z,55.10
2018-06-01T07:49:01.897Z,55.20
2018-06-01T07:51:30.139Z,54.80
2018-06-01T07:53:58.368Z,54.20
2018-06-01T07:56:26.620Z,54.40
2018-06-01T07:58:54.887Z,53.80
2018-06-01T08:01:23.134Z,53.90
2018-06-01T08:03:52.156Z,53.50
2018-06-01T08:06:20.417Z,53.50
2018-06-01T08:08:48.677Z,53.80
2018-06-01T08:11:18.420Z,54.20
2018-06-01T08:13:46.731Z,54.20
2018-06-01T08:16:14.972Z,53.80
2018-06-01T08:18:43.214Z,54.00
2018-06-01T08:21:12.256Z,53.80
2018-06-01T08:23:40.510Z,53.70
2018-06-01T08:26:08.745Z,53.80
2018-06-01T08:28:37.049Z,53.80
2018-06-01T08:31:05.332Z,53.40
2018-06-01T08:33:33.579Z,52.10
2018-06-01T08:36:01.828Z,52.00
2018-06-01T08:38:30.852Z,51.90
2018-06-01T08:40:59.106Z,51.90
2018-06-01T08:43:27.377Z,51.50
2018-06-01T08:45:55.683Z,51.50
2018-06-01T08:48:23.964Z,51.50
2018-06-01T08:50:52.216Z,51.30
2018-06-01T08:53:20.439Z,51.50
2018-06-01T08:55:48.710Z,51.50
2018-06-01T08:58:16.973Z,51.10
2018-06-01T09:00:45.231Z,51.10
2018-06-01T09:03:13.528Z,50.60
2018-06-01T09:05:41.749Z,50.00
2018-06-01T09:08:09.982Z,50.00
2018-06-01T09:10:39.021Z,49.30
2018-06-01T09:13:07.263Z,49.30
2018-06-01T09:15:35.553Z,49.00
2018-06-01T09:18:04.567Z,49.40
2018-06-01T09:20:32.795Z,49.30
2018-06-01T09:23:01.808Z,49.50
2018-06-01T09:25:30.050Z,49.50
2018-06-01T09:27:58.332Z,49.50
2018-06-01T09:30:26.567Z,49.70
2018-06-01T09:32:54.825Z,49.80
2018-06-01T09:35:23.056Z,49.20
2018-06-01T09:37:51.300Z,48.90
2018-06-01T09:40:19.525Z,49.10
2018-06-01T09:42:48.532Z,47.60
2018-06-01T09:45:16.822Z,47.60
2018-06-01T09:47:45.812Z,47.80
2018-06-01T09:50:14.046Z,47.80
2018-06-01T09:52:42.315Z,47.30
2018-06-01T09:55:10.548Z,47.00
2018-06-01T09:57:38.780Z,46.10
2018-06-01T10:00:07.042Z,46.20
2018-06-01T10:02:35.281Z,45.90
2018-06-01T10:05:03.546Z,46.40
2018-06-01T10:07:31.787Z,46.30
2018-06-01T10:10:05.801Z,46.50
2018-06-01T10:12:34.053Z,46.60
2018-06-01T10:15:02.289Z,46.80
2018-06-01T10:17:30.559Z,46.90
2018-06-01T10:19:58.804Z,47.10
2018-06-01T10:22:27.041Z,47.30
2018-06-01T10:24:55.273Z,48.90
2018-06-01T10:27:24.295Z,54.00
2018-06-01T10:29:52.557Z,54.00
2018-06-01T10:32:21.557Z,54.10
2018-06-01T10:34:49.788Z,54.00
2018-06-01T10:37:18.047Z,55.10
2018-06-01T10:39:46.304Z,54.80
2018-06-01T10:42:14.553Z,55.00
2018-06-01T10:44:42.806Z,55.40
2018-06-01T10:47:11.840Z,55.40
2018-06-01T10:49:40.045Z,55.30
2018-06-01T10:52:08.314Z,54.90
2018-06-01T10:54:36.577Z,53.60
2018-06-01T10:57:04.885Z,52.30
2018-06-01T10:59:33.142Z,52.30
2018-06-01T11:02:01.380Z,51.90
2018-06-01T11:04:30.410Z,49.30
2018-06-01T11:06:59.436Z,48.30
2018-06-01T11:09:27.684Z,48.20
2018-06-01T11:11:55.924Z,47.70
2018-06-01T11:14:24.212Z,46.80
2018-06-01T11:16:53.188Z,45.30
2018-06-01T11:19:21.475Z,45.20
2018-06-01T11:21:50.450Z,45.20
2018-06-01T11:24:18.701Z,45.20
2018-06-01T11:26:46.948Z,45.60
2018-06-01T11:29:15.172Z,45.50
2018-06-01T11:31:44.183Z,45.40
2018-06-01T11:34:12.420Z,45.30
2018-06-01T11:36:40.665Z,44.90
2018-06-01T11:39:08.898Z,44.00
2018-06-01T11:41:37.908Z,42.80
2018-06-01T11:44:06.932Z,43.40
2018-06-01T11:46:35.169Z,43.40
2018-06-01T11:49:04.181Z,43.50
2018-06-01T11:51:32.441Z,43.50
2018-06-01T11:54:01.435Z,43.50
2018-06-01T11:56:30.445Z,43.10
2018-06-01T11:58:58.669Z,43.10
2018-06-01T12:01:26.952Z,42.70
2018-06-01T12:03:55.192Z,42.30
2018-06-01T12:06:23.511Z,42.90
2018-06-01T12:08:51.742Z,42.80
2018-06-01T12:11:20.020Z,42.30
2018-06-01T12:13:49.241Z,43.10
2018-06-01T12:16:17.470Z,43.40
2018-06-01T12:18:45.705Z,42.90
2018-06-01T12:21:13.929Z,43.10
2018-06-01T12:23:42.201Z,43.10
2018-06-01T12:26:10.445Z,43.10
2018-06-01T12:28:38.679Z,42.80
2018-06-01T12:31:06.901Z,41.60
2018-06-01T12:33:35.133Z,40.90
2018-06-01T12:36:03.380Z,40.70
2018-06-01T12:38:31.641Z,40.40
2018-06-01T12:41:00.657Z,39.80
2018-06-01T12:43:28.912Z,39.70
2018-06-01T12:45:57.148Z,39.50
2018-06-01T12:48:25.387Z,39.60
2018-06-01T12:50:53.758Z,39.90
2018-06-01T12:53:21.981Z,40.40
2018-06-01T12:55:50.224Z,40.00
2018-06-01T12:58:18.490Z,40.30
2018-06-01T13:00:47.455Z,41.30
2018-06-01T13:03:16.471Z,40.70
2018-06-01T13:05:45.454Z,41.20
2018-06-01T13:08:13.688Z,41.20
2018-06-01T13:10:41.912Z,42.50
2018-06-01T13:13:10.213Z,42.80
2018-06-01T13:15:38.558Z,43.20
2018-06-01T13:18:07.900Z,42.90
2018-06-01T13:20:36.223Z,42.20
2018-06-01T13:23:04.376Z,41.70
2018-06-01T13:25:32.611Z,41.70
2018-06-01T13:28:00.832Z,41.90
2018-06-01T13:30:29.092Z,42.10
2018-06-01T13:32:57.312Z,43.40
2018-06-01T13:35:26.357Z,44.80
2018-06-01T13:37:54.652Z,44.70
2018-06-01T13:40:22.917Z,45.20
2018-06-01T13:42:51.219Z,45.20
2018-06-01T13:45:19.462Z,45.20
2018-06-01T13:47:47.689Z,44.90
2018-06-01T13:50:15.941Z,45.10
2018-06-01T13:52:44.196Z,45.20
2018-06-01T13:55:12.436Z,45.40
2018-06-01T14:00:16.885Z,45.60
2018-06-01T14:02:45.128Z,45.60
2018-06-01T14:05:13.368Z,45.10
2018-06-01T14:07:42.559Z,44.80
2018-06-01T14:10:10.781Z,44.80
2018-06-01T14:12:39.778Z,44.60
2018-06-01T14:15:08.029Z,44.50
2018-06-01T14:17:36.276Z,44.70
2018-06-01T14:20:04.533Z,44.70
2018-06-01T14:22:32.810Z,44.90
2018-06-01T14:25:01.079Z,45.20
2018-06-01T14:27:29.355Z,45.20
2018-06-01T14:29:57.602Z,45.50
2018-06-01T14:32:25.868Z,45.10
2018-06-01T14:34:54.104Z,44.50
2018-06-01T14:37:22.368Z,45.40
2018-06-01T14:39:51.351Z,45.20
2018-06-01T14:42:19.585Z,45.20
2018-06-01T14:44:47.835Z,45.50
2018-06-01T14:47:16.084Z,45.40
2018-06-01T14:49:44.324Z,45.50
2018-06-01T14:52:12.600Z,45.30
2018-06-01T14:54:40.830Z,45.10
2018-06-01T14:57:09.085Z,45.00
2018-06-01T14:59:37.310Z,44.60
2018-06-01T15:02:05.540Z,44.00
2018-06-01T15:04:33.780Z,42.90
2018-06-01T15:07:02.012Z,43.40
2018-06-01T15:09:30.290Z,43.70
2018-06-01T15:11:58.546Z,43.60
2018-06-01T15:14:27.556Z,43.10
2018-06-01T15:16:55.781Z,43.10
2018-06-01T15:19:24.042Z,42.70
2018-06-01T15:21:52.269Z,42.70
2018-06-01T15:24:21.271Z,42.70
2018-06-01T15:26:49.492Z,42.70
2018-06-01T15:29:17.707Z,42.20
2018-06-01T15:31:45.960Z,42.20
2018-06-01T15:34:14.233Z,42.80
2018-06-01T15:36:42.484Z,43.20
2018-06-01T15:39:10.689Z,43.30
2018-06-01T15:41:38.960Z,43.10
2018-06-01T15:44:07.143Z,42.50
2018-06-01T15:46:36.164Z,40.60
2018-06-01T15:49:04.461Z,40.50
2018-06-01T15:51:32.676Z,40.60
2018-06-01T15:54:00.983Z,40.70
2018-06-01T15:56:29.983Z,41.10
2018-06-01T15:58:58.191Z,41.00
2018-06-01T16:01:27.223Z,41.80
2018-06-01T16:03:55.470Z,41.70
2018-06-01T16:06:23.743Z,41.50
2018-06-01T16:08:51.983Z,41.10
2018-06-01T16:11:20.204Z,41.30
2018-06-01T16:13:48.451Z,41.90
2018-06-01T16:16:16.718Z,43.10
2018-06-01T16:18:44.943Z,43.70
2018-06-01T16:21:13.217Z,43.80
2018-06-01T16:23:41.428Z,44.40
2018-06-01T16:26:09.661Z,44.10
2018-06-01T16:28:37.886Z,44.70
2018-06-01T16:31:06.163Z,46.30
2018-06-01T16:33:34.414Z,49.70
2018-06-01T16:36:02.635Z,51.00
2018-06-01T16:38:30.891Z,53.40
2018-06-01T16:40:59.128Z,55.20
2018-06-01T16:43:27.388Z,57.60
2018-06-01T16:45:55.617Z,58.20
2018-06-01T16:48:23.864Z,59.00
2018-06-01T16:50:52.112Z,60.60
2018-06-01T16:53:20.360Z,60.70
2018-06-01T16:55:48.617Z,60.40
2018-06-01T16:58:16.896Z,61.60
2018-06-01T17:00:45.876Z,63.00
2018-06-01T17:03:14.901Z,64.40
2018-06-01T17:05:43.139Z,64.40
2018-06-01T17:08:11.377Z,64.90
2018-06-01T17:10:39.625Z,66.00
2018-06-01T17:13:07.854Z,66.00
2018-06-01T17:15:36.150Z,65.50
2018-06-01T17:18:04.340Z,64.90
2018-06-01T17:20:32.620Z,63.70
2018-06-01T17:23:00.837Z,62.70
2018-06-01T17:25:29.079Z,61.30
2018-06-01T17:27:57.342Z,60.10
2018-06-01T17:30:26.378Z,60.60
2018-06-01T17:32:54.604Z,60.50
2018-06-01T17:35:23.634Z,61.20
2018-06-01T17:37:51.877Z,61.10
2018-06-01T17:40:20.087Z,61.90
2018-06-01T17:42:48.333Z,62.20
2018-06-01T17:45:17.354Z,62.70
2018-06-01T17:47:45.595Z,62.60
2018-06-01T17:50:14.592Z,63.00
2018-06-01T17:52:44.600Z,63.00
2018-06-01T17:55:12.841Z,63.00
2018-06-01T17:57:41.065Z,63.10
2018-06-01T18:00:10.092Z,63.80
2018-06-01T18:02:38.341Z,63.80
2018-06-01T18:05:07.335Z,64.40
2018-06-01T18:07:36.350Z,63.90
2018-06-01T18:10:04.593Z,63.80
2018-06-01T18:12:33.627Z,64.60
2018-06-01T18:15:01.869Z,64.60
2018-06-01T18:17:30.856Z,65.50
2018-06-01T18:19:59.958Z,63.40
2018-06-01T18:22:28.987Z,63.30
2018-06-01T18:24:57.208Z,63.20
2018-06-01T18:27:25.454Z,63.70
2018-06-01T18:29:53.693Z,64.80
2018-06-01T18:32:21.939Z,65.00
2018-06-01T18:34:50.182Z,65.60
2018-06-01T18:37:18.446Z,65.60
2018-06-01T18:39:46.696Z,65.80
2018-06-01T18:42:14.969Z,66.80
2018-06-01T18:44:43.218Z,66.90
2018-06-01T18:47:11.466Z,65.80
2018-06-01T18:49:39.722Z,65.20
2018-06-01T18:52:08.006Z,66.00
2018-06-01T18:54:36.229Z,68.30
2018-06-01T18:57:04.539Z,68.80
2018-06-01T18:59:32.765Z,70.80
2018-06-01T19:02:01.043Z,69.50
2018-06-01T19:04:29.254Z,69.50
2018-06-01T19:06:57.552Z,68.80
2018-06-01T19:09:25.929Z,69.50
2018-06-01T19:11:54.193Z,70.80
2018-06-01T19:14:22.434Z,71.40
2018-06-01T19:16:51.444Z,72.60
2018-06-01T19:19:20.435Z,73.00
2018-06-01T19:21:49.462Z,72.90
2018-06-01T19:24:17.689Z,72.90
2018-06-01T19:26:45.960Z,73.40
2018-06-01T19:29:14.191Z,73.60
2018-06-01T19:31:42.416Z,73.90
2018-06-01T19:34:10.670Z,73.70
2018-06-01T19:36:38.904Z,73.70
2018-06-01T19:39:07.153Z,74.10
2018-06-01T19:41:35.400Z,75.30
2018-06-01T19:44:03.631Z,75.50
2018-06-01T19:46:31.862Z,76.00
2018-06-01T19:49:00.129Z,75.80
2018-06-01T19:51:28.441Z,75.70
2018-06-01T19:53:56.643Z,75.50
2018-06-01T19:56:24.879Z,75.70
2018-06-01T19:58:53.308Z,76.00
2018-06-01T20:01:21.538Z,76.90
2018-06-01T20:03:49.970Z,76.90
2018-06-01T20:06:18.201Z,76.90
2018-06-01T20:08:46.460Z,76.80
2018-06-01T20:11:14.687Z,77.10
2018-06-01T20:13:42.934Z,76.20
2018-06-01T20:16:11.924Z,75.30
2018-06-01T20:18:40.185Z,75.30
2018-06-01T20:21:08.421Z,74.60
2018-06-01T20:23:36.660Z,74.00
2018-06-01T20:26:05.717Z,74.00
2018-06-01T20:28:33.936Z,74.00
2018-06-01T20:31:02.944Z,74.50
2018-06-01T20:33:31.166Z,75.10
2018-06-01T20:35:59.501Z,74.60
2018-06-01T20:38:27.741Z,75.00
2018-06-01T20:40:56.128Z,74.70
2018-06-01T20:43:24.345Z,74.20
2018-06-01T20:45:52.584Z,74.90
2018-06-01T20:48:21.589Z,75.00
2018-06-01T20:50:50.610Z,74.60
2018-06-01T20:53:18.878Z,74.50
2018-06-01T20:55:47.096Z,74.60
2018-06-01T20:58:15.402Z,74.00
2018-06-01T21:00:43.633Z,74.20
2018-06-01T21:03:11.897Z,74.30
2018-06-01T21:05:40.176Z,74.70
2018-06-01T21:08:08.426Z,75.10
2018-06-01T21:10:36.661Z,75.10
2018-06-01T21:13:04.900Z,74.70
2018-06-01T21:15:33.129Z,74.20
2018-06-01T21:18:01.423Z,74.00
2018-06-01T21:20:30.410Z,74.20
2018-06-01T21:22:58.663Z,74.10
2018-06-01T21:25:27.665Z,74.50
2018-06-01T21:27:55.922Z,74.50
2018-06-01T21:30:24.181Z,74.70
2018-06-01T21:32:52.415Z,74.50
2018-06-01T21:35:21.415Z,74.90
2018-06-01T21:37:49.687Z,74.80
2018-06-01T21:40:18.703Z,74.70
2018-06-01T21:42:46.937Z,74.60
2018-06-01T21:45:15.265Z,74.90
2018-06-01T21:47:43.491Z,75.60
2018-06-01T21:50:11.747Z,74.80
2018-06-01T21:52:39.989Z,74.80
2018-06-01T21:55:08.241Z,74.70
2018-06-01T21:57:37.287Z,74.80
2018-06-01T22:00:05.949Z,74.80
2018-06-01T22:02:34.153Z,75.00
2018-06-01T22:05:02.445Z,75.50
2018-06-01T22:07:30.672Z,76.00
2018-06-01T22:09:58.951Z,75.80
2018-06-01T22:12:27.221Z,75.50
2018-06-01T22:14:55.472Z,75.40
2018-06-01T22:17:24.489Z,75.70
2018-06-01T22:19:52.728Z,75.70
2018-06-01T22:22:20.963Z,76.00
2018-06-01T22:24:49.218Z,76.60
2018-06-01T22:27:17.460Z,76.80
2018-06-01T22:29:46.454Z,76.40
2018-06-01T22:32:14.710Z,76.30
2018-06-01T22:34:42.946Z,76.00
2018-06-01T22:37:11.196Z,76.20
2018-06-01T22:39:39.431Z,76.10
2018-06-01T22:42:07.695Z,76.20
2018-06-01T22:44:35.914Z,76.90
2018-06-01T22:47:04.171Z,77.40
2018-06-01T22:49:32.416Z,77.80
2018-06-01T22:52:00.642Z,77.50
2018-06-01T22:54:29.676Z,77.20
2018-06-01T22:56:57.907Z,77.50
2018-06-01T22:59:26.151Z,77.70
2018-06-01T23:01:54.393Z,78.10
2018-06-01T23:04:22.624Z,77.20
2018-06-01T23:06:50.857Z,77.10
2018-06-01T23:09:19.147Z,76.90
2018-06-01T23:11:47.376Z,76.80
2018-06-01T23:14:16.377Z,77.40
2018-06-01T23:16:45.379Z,77.40
2018-06-01T23:19:13.631Z,77.40
2018-06-01T23:21:41.871Z,77.40
2018-06-01T23:24:10.103Z,77.30
2018-06-01T23:26:38.338Z,77.40
2018-06-01T23:29:06.580Z,77.20
2018-06-01T23:31:34.819Z,77.10
2018-06-01T23:34:03.827Z,76.80
2018-06-01T23:36:32.069Z,76.80
2018-06-01T23:39:00.321Z,77.60
2018-06-01T23:41:28.580Z,77.80
2018-06-01T23:43:56.820Z,78.30
2018-06-01T23:46:25.811Z,78.50
2018-06-01T23:48:54.822Z,78.10
2018-06-01T23:51:23.046Z,78.10
2018-06-01T23:53:51.298Z,77.80
2018-06-01T23:56:19.538Z,77.90
2018-06-01T23:58:47.799Z,78.40
